Time;durP1;ratioP1;P1;durP2;ratioP2;P2;SDS_P1;SDS_P2;PMS_P1;PMS_P2;Temp;Humidity;BMP_temperature;BMP_pressure;BME280_temperature;BME280_humidity;BME280_pressure;Samples;Min_cycle;Max_cycle;Signal;HPM_P1;HPM_P2
2022/10/26 00:00:46;;;;;;;8.98;3.28;;;10.30;99.90;;;;;;4793995;29;20278;-92
2022/10/26 00:03:13;;;;;;;5.60;3.38;;;10.30;99.90;;;;;;4793578;29;20245;-93
2022/10/26 00:05:39;;;;;;;5.88;3.33;;;10.30;99.90;;;;;;4790543;30;20199;-92
2022/10/26 00:08:06;;;;;;;3.78;3.35;;;10.30;99.90;;;;;;4790119;30;20195;-92
2022/10/26 00:10:35;;;;;;;5.55;3.67;;;10.30;99.90;;;;;;4791076;30;20244;-92
2022/10/26 00:13:08;;;;;;;5.75;3.08;;;10.30;99.90;;;;;;4791911;29;20195;-91
2022/10/26 00:15:38;;;;;;;4.70;3.08;;;10.30;99.90;;;;;;4789656;29;20223;-91
2022/10/26 00:18:03;;;;;;;6.93;3.50;;;10.30;99.90;;;;;;4790895;30;20199;-91
2022/10/26 00:20:31;;;;;;;10.73;3.67;;;10.30;99.90;;;;;;4790714;30;20203;-92
2022/10/26 00:22:57;;;;;;;4.72;3.40;;;10.20;99.90;;;;;;4790382;30;20191;-91
2022/10/26 00:25:22;;;;;;;9.80;3.35;;;10.30;99.90;;;;;;4790589;30;20201;-92
2022/10/26 00:27:48;;;;;;;4.25;2.65;;;10.30;99.90;;;;;;4790446;30;20197;-93
2022/10/26 00:30:14;;;;;;;4.75;3.40;;;10.30;99.90;;;;;;4790613;30;20198;-91
2022/10/26 00:32:41;;;;;;;5.55;3.10;;;10.20;99.90;;;;;;4790342;30;20283;-92
2022/10/26 00:35:06;;;;;;;6.35;3.45;;;10.20;99.90;;;;;;4789994;30;20770;-92
2022/10/26 00:37:32;;;;;;;5.65;3.30;;;10.20;99.90;;;;;;4790303;30;20222;-92
2022/10/26 00:39:58;;;;;;;4.03;3.22;;;10.20;99.90;;;;;;4790277;30;20195;-92
2022/10/26 00:42:24;;;;;;;8.63;3.38;;;10.10;99.90;;;;;;4790544;30;20500;-92
2022/10/26 00:45:18;;;;;;;11.93;3.70;;;10.10;99.90;;;;;;4790251;30;20191;-91
2022/10/26 00:47:52;;;;;;;4.45;3.25;;;10.20;99.90;;;;;;4780846;30;20650;-92
2022/10/26 00:50:32;;;;;;;14.40;3.47;;;10.20;99.90;;;;;;4790544;30;20212;-91
2022/10/26 00:53:21;;;;;;;6.78;3.25;;;10.10;99.90;;;;;;4791185;29;20250;-92
2022/10/26 00:55:51;;;;;;;6.30;3.55;;;10.10;99.90;;;;;;4790180;30;20214;-90
2022/10/26 00:58:18;;;;;;;10.77;3.72;;;10.00;99.90;;;;;;4789948;30;20244;-91
2022/10/26 01:00:44;;;;;;;5.28;3.33;;;10.00;99.90;;;;;;4789682;30;20206;-91
2022/10/26 01:03:30;;;;;;;3.85;2.75;;;10.00;99.90;;;;;;4789885;30;20221;-92
2022/10/26 01:05:57;;;;;;;7.60;3.30;;;10.10;99.90;;;;;;4776402;30;20207;-92
2022/10/26 01:08:24;;;;;;;8.82;3.40;;;10.10;99.90;;;;;;4779580;30;20196;-92
2022/10/26 01:10:51;;;;;;;12.68;3.20;;;10.00;99.90;;;;;;4778536;30;20195;-91
2022/10/26 01:13:19;;;;;;;4.63;3.22;;;9.90;99.90;;;;;;4783789;30;20247;-91
2022/10/26 01:16:10;;;;;;;5.43;3.45;;;9.90;99.90;;;;;;4789271;30;20227;-91
2022/10/26 01:18:48;;;;;;;5.90;3.40;;;9.90;99.90;;;;;;4760363;30;20237;-93
2022/10/26 01:21:17;;;;;;;5.40;3.10;;;9.90;99.90;;;;;;4789192;30;20195;-91
2022/10/26 01:24:36;;;;;;;4.07;2.90;;;9.90;99.90;;;;;;4789085;30;20208;-90
2022/10/26 01:27:23;;;;;;;8.23;2.90;;;9.90;99.90;;;;;;4783854;29;20249;-91
2022/10/26 01:30:00;;;;;;;4.53;3.25;;;10.00;99.90;;;;;;4765751;30;20282;-91
2022/10/26 01:32:37;;;;;;;4.55;3.13;;;9.90;99.90;;;;;;4777621;30;20199;-92
2022/10/26 01:35:15;;;;;;;6.15;3.15;;;9.90;99.90;;;;;;4777278;30;20246;-91
2022/10/26 01:37:58;;;;;;;4.40;2.58;;;9.90;99.90;;;;;;4776532;30;20250;-93
2022/10/26 01:40:55;;;;;;;6.57;2.47;;;9.90;99.90;;;;;;4779185;30;20286;-91
2022/10/26 01:43:23;;;;;;;3.42;2.50;;;9.80;99.90;;;;;;4766464;30;20224;-91
2022/10/26 01:45:52;;;;;;;5.93;3.15;;;9.80;99.90;;;;;;4788831;30;20208;-91
2022/10/26 01:48:21;;;;;;;5.03;2.80;;;9.80;99.90;;;;;;4781347;30;20207;-91
2022/10/26 01:50:52;;;;;;;6.05;2.83;;;9.70;99.90;;;;;;4763070;30;20216;-91
2022/10/26 01:53:19;;;;;;;6.30;3.42;;;9.70;99.90;;;;;;4775804;30;20230;-91
2022/10/26 01:55:51;;;;;;;5.90;3.53;;;9.60;99.90;;;;;;4774776;30;20231;-90
2022/10/26 01:58:47;;;;;;;6.07;3.00;;;9.60;99.90;;;;;;4786717;30;20646;-91
2022/10/26 02:01:33;;;;;;;5.88;2.70;;;9.60;99.90;;;;;;4768106;30;20287;-91
2022/10/26 02:04:11;;;;;;;5.25;2.92;;;9.60;99.90;;;;;;4774636;30;20235;-90
2022/10/26 02:07:08;;;;;;;8.10;2.60;;;9.50;99.90;;;;;;5170833;24;21763;-90
2022/10/26 02:09:51;;;;;;;4.82;2.35;;;9.40;99.90;;;;;;4799475;29;20211;-88
2022/10/26 02:12:32;;;;;;;6.40;2.90;;;9.40;99.90;;;;;;4806746;29;20179;-88
2022/10/26 02:15:16;;;;;;;7.82;3.10;;;9.40;99.90;;;;;;4793216;29;20275;-89
2022/10/26 02:17:55;;;;;;;5.65;3.10;;;9.40;99.90;;;;;;4793110;29;20207;-88
2022/10/26 02:20:26;;;;;;;5.32;3.10;;;9.40;99.90;;;;;;4805410;29;20217;-89
2022/10/26 02:22:54;;;;;;;5.50;3.20;;;9.40;99.90;;;;;;4807809;29;20203;-90
2022/10/26 02:25:24;;;;;;;6.85;3.40;;;9.30;99.90;;;;;;4799331;29;20206;-89
2022/10/26 02:27:55;;;;;;;3.85;3.42;;;9.40;99.90;;;;;;4792064;29;20190;-90
2022/10/26 02:30:30;;;;;;;6.60;3.33;;;9.30;99.90;;;;;;4791649;29;20190;-90
2022/10/26 02:32:58;;;;;;;9.02;3.28;;;9.40;99.90;;;;;;4791505;29;20209;-91
2022/10/26 02:35:30;;;;;;;7.13;3.42;;;9.40;99.90;;;;;;4807644;29;20210;-90
2022/10/26 02:37:59;;;;;;;5.68;3.15;;;9.50;99.90;;;;;;4792348;29;20252;-88
2022/10/26 02:40:34;;;;;;;6.50;3.50;;;9.50;99.90;;;;;;4795335;29;20247;-90
2022/10/26 02:43:05;;;;;;;6.43;3.22;;;9.50;99.90;;;;;;4791601;29;20571;-90
2022/10/26 02:45:37;;;;;;;5.82;3.33;;;9.50;99.90;;;;;;4799015;29;20190;-90
2022/10/26 02:48:03;;;;;;;6.25;3.00;;;9.50;99.90;;;;;;4794958;29;20217;-88
2022/10/26 02:50:41;;;;;;;8.25;3.03;;;9.40;99.90;;;;;;4795344;29;20199;-88
2022/10/26 02:53:38;;;;;;;4.65;3.00;;;9.40;99.90;;;;;;4794896;29;20587;-89
2022/10/26 02:56:15;;;;;;;7.72;3.90;;;9.50;99.90;;;;;;4794082;29;20199;-89
2022/10/26 02:58:45;;;;;;;6.35;3.00;;;9.50;99.90;;;;;;4783637;29;20194;-90
2022/10/26 03:01:12;;;;;;;5.18;3.38;;;9.40;99.90;;;;;;4795012;29;20212;-91
2022/10/26 03:03:37;;;;;;;9.30;3.40;;;9.40;99.90;;;;;;4794801;29;20630;-90
2022/10/26 03:06:03;;;;;;;6.28;3.35;;;9.40;99.90;;;;;;4795073;29;20190;-92
2022/10/26 03:08:29;;;;;;;5.47;3.17;;;9.10;99.90;;;;;;4794745;29;20243;-91
2022/10/26 03:10:56;;;;;;;4.18;2.70;;;9.00;99.90;;;;;;4797751;29;20194;-91
2022/10/26 03:13:22;;;;;;;7.97;2.95;;;9.00;99.90;;;;;;4797409;29;20697;-90
2022/10/26 03:15:48;;;;;;;3.25;2.67;;;9.00;99.90;;;;;;4810809;29;20327;-91
2022/10/26 03:18:14;;;;;;;3.28;2.50;;;8.90;99.90;;;;;;4810845;29;20280;-90
2022/10/26 03:20:44;;;;;;;3.33;2.28;;;8.90;99.90;;;;;;4810745;29;20312;-91
2022/10/26 03:23:11;;;;;;;3.08;2.30;;;8.90;99.90;;;;;;4794448;29;20310;-91
2022/10/26 03:25:37;;;;;;;4.63;2.45;;;8.80;99.90;;;;;;4794785;29;20683;-90
2022/10/26 03:28:03;;;;;;;3.80;2.33;;;8.90;99.90;;;;;;4794352;29;20236;-91
2022/10/26 03:30:30;;;;;;;5.53;2.40;;;8.80;99.90;;;;;;4793972;29;20199;-89
2022/10/26 03:32:56;;;;;;;5.65;2.10;;;8.80;99.90;;;;;;4794238;29;20285;-89
2022/10/26 03:35:22;;;;;;;4.97;2.60;;;8.80;99.90;;;;;;4794513;29;20218;-90
2022/10/26 03:37:48;;;;;;;5.75;2.72;;;8.70;99.90;;;;;;4808116;29;20190;-90
2022/10/26 03:40:14;;;;;;;8.55;3.20;;;8.80;99.90;;;;;;4796482;29;20194;-90
2022/10/26 03:42:39;;;;;;;6.72;2.95;;;8.90;99.90;;;;;;4809285;29;20191;-90
2022/10/26 03:45:06;;;;;;;8.82;2.88;;;8.90;99.90;;;;;;4804411;29;20195;-89
2022/10/26 03:47:32;;;;;;;5.30;3.22;;;9.00;99.90;;;;;;4809501;29;20190;-88
2022/10/26 03:49:59;;;;;;;5.55;3.10;;;9.00;99.90;;;;;;4793823;29;20529;-88
2022/10/26 03:52:25;;;;;;;7.03;3.10;;;9.10;99.90;;;;;;4798857;29;20221;-88
2022/10/26 03:54:51;;;;;;;8.43;2.65;;;9.00;99.90;;;;;;4810293;29;20250;-90
2022/10/26 03:57:17;;;;;;;5.35;3.10;;;9.10;99.90;;;;;;4809992;29;20248;-90
2022/10/26 03:59:43;;;;;;;4.82;2.70;;;9.10;99.90;;;;;;4799276;29;20191;-90
2022/10/26 04:02:10;;;;;;;3.83;2.17;;;9.00;99.90;;;;;;4810175;29;20187;-91
2022/10/26 04:04:36;;;;;;;4.68;1.88;;;8.90;99.90;;;;;;4793935;29;20194;-89
2022/10/26 04:07:02;;;;;;;5.22;2.47;;;8.90;99.90;;;;;;4809964;29;20231;-89
2022/10/26 04:09:27;;;;;;;3.78;2.20;;;8.80;99.90;;;;;;4793961;29;20254;-89
2022/10/26 04:11:54;;;;;;;8.70;2.35;;;8.80;99.90;;;;;;4810109;29;20182;-90
2022/10/26 04:14:20;;;;;;;5.95;1.60;;;8.70;99.90;;;;;;4794310;29;20301;-90
2022/10/26 04:16:45;;;;;;;5.78;2.03;;;8.60;99.90;;;;;;4793869;29;20283;-89
2022/10/26 04:19:11;;;;;;;4.47;2.17;;;8.50;99.90;;;;;;4793911;29;20194;-90
2022/10/26 04:21:37;;;;;;;7.95;2.00;;;8.50;99.90;;;;;;4794085;29;20187;-91
2022/10/26 04:24:03;;;;;;;3.55;1.98;;;8.50;99.90;;;;;;4794020;29;20197;-91
2022/10/26 04:26:28;;;;;;;6.13;2.10;;;8.40;99.90;;;;;;4793170;29;20190;-91
2022/10/26 04:28:54;;;;;;;4.67;2.00;;;8.30;99.90;;;;;;4793255;29;20229;-90
2022/10/26 04:31:21;;;;;;;2.80;1.80;;;8.30;99.90;;;;;;4793677;29;20541;-91
2022/10/26 04:33:46;;;;;;;6.88;2.10;;;8.30;99.90;;;;;;4793350;29;20183;-90
2022/10/26 04:36:12;;;;;;;2.97;2.08;;;8.30;99.90;;;;;;4809756;29;20186;-91
2022/10/26 04:38:38;;;;;;;7.85;2.45;;;8.30;99.90;;;;;;4809773;29;20258;-91
2022/10/26 04:41:15;;;;;;;5.68;2.08;;;8.30;99.90;;;;;;4809711;29;20261;-91
2022/10/26 04:43:40;;;;;;;5.03;2.15;;;8.40;99.90;;;;;;4793310;29;20678;-89
2022/10/26 04:46:06;;;;;;;3.03;2.00;;;8.30;99.90;;;;;;4809504;29;20269;-90
2022/10/26 04:48:32;;;;;;;3.23;1.83;;;8.30;99.90;;;;;;4787508;30;20202;-91
2022/10/26 04:51:01;;;;;;;4.40;1.80;;;8.20;99.90;;;;;;4775469;30;20281;-91
2022/10/26 04:53:27;;;;;;;4.15;1.95;;;8.00;99.90;;;;;;4775355;30;20179;-90
2022/10/26 04:55:57;;;;;;;2.15;1.70;;;8.00;99.90;;;;;;4775255;30;20284;-89
2022/10/26 04:58:23;;;;;;;3.15;1.83;;;8.00;99.90;;;;;;4775484;30;20196;-89
2022/10/26 05:00:56;;;;;;;2.38;1.73;;;8.10;99.90;;;;;;4774959;30;20333;-90
2022/10/26 05:03:21;;;;;;;2.58;1.88;;;8.00;99.90;;;;;;4775234;30;20214;-91
2022/10/26 05:05:47;;;;;;;2.97;1.77;;;8.00;99.90;;;;;;4791185;30;20646;-90
2022/10/26 05:08:13;;;;;;;4.75;1.60;;;7.90;99.90;;;;;;4774870;30;20573;-90
2022/10/26 05:10:58;;;;;;;3.30;2.20;;;8.00;99.90;;;;;;4775184;30;20607;-89
2022/10/26 05:13:24;;;;;;;2.30;1.53;;;8.00;99.90;;;;;;4789823;30;20187;-89
2022/10/26 05:15:53;;;;;;;4.20;1.87;;;7.90;99.90;;;;;;4789748;30;20256;-89
2022/10/26 05:18:18;;;;;;;4.10;1.70;;;7.90;99.90;;;;;;4774806;30;20198;-88
2022/10/26 05:20:52;;;;;;;5.13;1.73;;;8.00;99.90;;;;;;4789662;30;20217;-90
2022/10/26 05:23:18;;;;;;;6.85;1.55;;;8.00;99.90;;;;;;4774979;30;20266;-89
2022/10/26 05:25:45;;;;;;;3.05;1.73;;;8.00;99.90;;;;;;4816369;29;20285;-90
2022/10/26 05:28:13;;;;;;;3.90;1.52;;;8.00;99.90;;;;;;4812253;29;20270;-90
2022/10/26 05:30:42;;;;;;;2.40;1.48;;;7.90;99.90;;;;;;4792748;29;20187;-91
2022/10/26 05:33:10;;;;;;;3.90;1.67;;;7.80;99.90;;;;;;4792582;29;20221;-90
2022/10/26 05:35:36;;;;;;;4.70;1.70;;;7.60;99.90;;;;;;4792272;29;20270;-89
2022/10/26 05:38:12;;;;;;;2.45;1.63;;;7.70;99.90;;;;;;4793558;29;20249;-89
2022/10/26 05:40:50;;;;;;;5.05;1.95;;;7.70;99.90;;;;;;4807204;29;20186;-89
2022/10/26 05:43:16;;;;;;;5.03;2.93;;;7.70;99.90;;;;;;4792766;29;20303;-90
2022/10/26 05:45:42;;;;;;;12.45;3.00;;;7.70;99.90;;;;;;4802662;29;20291;-89
2022/10/26 05:48:08;;;;;;;7.10;3.57;;;7.70;99.90;;;;;;4796941;29;20704;-88
2022/10/26 05:50:34;;;;;;;3.23;2.40;;;7.70;99.90;;;;;;4807011;29;20520;-88
2022/10/26 05:53:00;;;;;;;6.27;3.20;;;7.70;99.90;;;;;;4807304;29;20190;-89
2022/10/26 05:55:26;;;;;;;4.22;2.95;;;7.70;99.90;;;;;;4807106;29;20218;-89
2022/10/26 05:57:52;;;;;;;12.47;3.30;;;7.70;99.90;;;;;;4806838;29;20187;-86
2022/10/26 06:00:23;;;;;;;8.37;3.23;;;7.80;99.90;;;;;;4807478;29;20508;-87
2022/10/26 06:03:24;;;;;;;6.57;3.30;;;7.70;99.90;;;;;;4802335;29;20190;-87
2022/10/26 06:05:55;;;;;;;5.07;2.60;;;7.80;99.90;;;;;;4791427;29;20193;-86
2022/10/26 06:08:23;;;;;;;3.37;2.40;;;7.70;99.90;;;;;;4791295;29;20227;-89
2022/10/26 06:10:49;;;;;;;4.20;1.90;;;7.70;99.90;;;;;;4791374;29;20187;-88
2022/10/26 06:13:15;;;;;;;3.10;2.03;;;7.60;99.90;;;;;;4790636;29;20522;-87
2022/10/26 06:16:07;;;;;;;3.42;1.80;;;7.60;99.90;;;;;;4801285;29;20213;-88
2022/10/26 06:18:53;;;;;;;1.97;1.77;;;7.60;99.90;;;;;;4799354;29;20229;-96
2022/10/26 06:21:44;;;;;;;2.20;1.80;;;7.60;99.90;;;;;;4795180;29;20320;-96
2022/10/26 06:24:56;;;;;;;2.73;2.03;;;7.60;99.90;;;;;;4797002;29;20182;-96
2022/10/26 06:27:44;;;;;;;2.07;1.63;;;7.60;99.90;;;;;;4784858;29;20201;-96
2022/10/26 06:30:10;;;;;;;2.10;1.70;;;7.50;99.90;;;;;;4813061;29;20258;-95
2022/10/26 06:32:38;;;;;;;2.00;1.50;;;7.50;99.90;;;;;;4829362;29;20178;-96
2022/10/26 06:35:23;;;;;;;2.83;1.73;;;7.60;99.90;;;;;;4813059;29;20214;-96
2022/10/26 06:37:51;;;;;;;3.30;1.80;;;7.60;99.90;;;;;;4814728;29;20173;-96
2022/10/26 06:40:18;;;;;;;2.97;2.13;;;7.50;99.90;;;;;;4811795;29;20232;-96
2022/10/26 06:42:49;;;;;;;2.50;1.93;;;7.60;99.90;;;;;;4811067;29;20182;-96
2022/10/26 06:45:16;;;;;;;4.50;2.00;;;7.60;99.90;;;;;;4806895;29;20194;-94
2022/10/26 06:47:59;;;;;;;5.73;2.30;;;7.50;99.90;;;;;;4794644;29;20190;-96
2022/10/26 06:50:50;;;;;;;2.70;2.10;;;7.50;99.90;;;;;;4774117;30;20179;-94
2022/10/26 06:53:37;;;;;;;4.70;1.80;;;7.60;99.90;;;;;;4808358;29;20193;-96
2022/10/26 06:56:02;;;;;;;4.17;2.47;;;7.50;99.90;;;;;;4809921;29;20252;-96
2022/10/26 06:58:33;;;;;;;5.07;2.00;;;7.60;99.90;;;;;;4810913;29;20190;-96
2022/10/26 07:00:59;;;;;;;5.00;2.30;;;7.60;99.90;;;;;;4798219;29;20187;-96
2022/10/26 07:03:25;;;;;;;5.67;2.57;;;7.60;99.90;;;;;;4797750;29;20274;-96
2022/10/26 07:05:51;;;;;;;3.40;2.50;;;7.60;99.90;;;;;;4793574;29;20179;-96
2022/10/26 07:08:17;;;;;;;4.30;2.40;;;7.60;99.90;;;;;;4789946;29;20243;-96
2022/10/26 07:10:43;;;;;;;3.80;1.97;;;7.70;99.90;;;;;;4790864;30;20225;-96
2022/10/26 07:13:31;;;;;;;7.90;2.42;;;7.60;99.90;;;;;;4791871;30;20240;-96
2022/10/26 07:15:56;;;;;;;5.25;2.70;;;7.60;99.90;;;;;;4802423;29;20674;-96
2022/10/26 07:18:22;;;;;;;4.50;2.42;;;7.60;99.90;;;;;;4803082;29;20222;-96
2022/10/26 07:20:48;;;;;;;3.10;2.30;;;7.70;99.90;;;;;;4804608;29;20612;-96
2022/10/26 07:23:18;;;;;;;7.83;2.60;;;7.70;99.90;;;;;;4791639;30;20191;-96
2022/10/26 07:25:43;;;;;;;8.95;2.53;;;7.70;99.90;;;;;;4808068;29;20197;-96
2022/10/26 07:28:10;;;;;;;3.17;2.03;;;7.80;99.90;;;;;;4810417;30;20172;-96
2022/10/26 07:30:36;;;;;;;6.90;2.30;;;7.70;99.90;;;;;;4803677;30;20195;-96
2022/10/26 07:33:12;;;;;;;4.63;2.50;;;7.70;99.90;;;;;;4805769;29;20187;-96
2022/10/26 07:35:38;;;;;;;3.97;2.40;;;7.70;99.90;;;;;;4809177;30;20218;-96
2022/10/26 07:38:07;;;;;;;6.15;2.50;;;7.80;99.90;;;;;;4806032;29;20198;-96
2022/10/26 07:40:35;;;;;;;2.90;2.20;;;7.80;99.90;;;;;;4812016;29;20187;-96
2022/10/26 07:43:08;;;;;;;7.63;2.77;;;7.90;99.90;;;;;;4809272;29;20191;-96
2022/10/26 07:45:35;;;;;;;6.10;2.60;;;8.00;99.90;;;;;;4803067;24;20255;-90
2022/10/26 07:48:01;;;;;;;2.80;2.35;;;8.10;99.90;;;;;;4788535;29;20282;-90
2022/10/26 07:50:27;;;;;;;8.35;3.15;;;8.30;99.90;;;;;;4787345;29;20618;-90
2022/10/26 07:52:53;;;;;;;6.18;2.70;;;8.40;99.90;;;;;;4787764;30;20297;-90
2022/10/26 07:55:20;;;;;;;4.95;2.70;;;8.50;99.90;;;;;;4788525;29;20688;-89
2022/10/26 07:57:46;;;;;;;4.60;2.55;;;8.60;99.90;;;;;;4787418;30;20211;-87
2022/10/26 08:00:12;;;;;;;5.15;2.80;;;8.70;99.90;;;;;;4787718;29;20179;-88
2022/10/26 08:02:38;;;;;;;4.97;2.58;;;8.80;99.90;;;;;;4787796;29;20270;-88
2022/10/26 08:05:04;;;;;;;6.13;2.85;;;8.90;99.90;;;;;;4787248;29;20627;-89
2022/10/26 08:07:31;;;;;;;4.35;2.80;;;9.00;99.90;;;;;;4787197;29;20223;-88
2022/10/26 08:09:57;;;;;;;6.68;3.15;;;9.10;99.90;;;;;;4787305;30;20214;-88
2022/10/26 08:12:23;;;;;;;6.25;3.17;;;9.20;99.90;;;;;;4788636;29;20176;-88
2022/10/26 08:14:48;;;;;;;8.85;3.58;;;9.30;99.90;;;;;;4804095;29;20210;-89
2022/10/26 08:17:14;;;;;;;3.95;3.40;;;9.40;99.90;;;;;;4795249;29;20571;-88
2022/10/26 08:19:40;;;;;;;5.75;3.55;;;9.50;99.90;;;;;;4787452;30;20191;-87
2022/10/26 08:22:06;;;;;;;7.20;3.80;;;9.60;99.90;;;;;;4787403;30;20222;-87
2022/10/26 08:24:31;;;;;;;7.97;3.45;;;9.70;99.90;;;;;;4787439;30;20175;-87
2022/10/26 08:26:57;;;;;;;11.05;3.20;;;9.80;99.90;;;;;;4787194;30;20222;-87
2022/10/26 08:29:23;;;;;;;4.07;3.17;;;9.90;99.90;;;;;;4786958;30;20191;-88
2022/10/26 08:31:49;;;;;;;8.75;3.60;;;10.00;99.90;;;;;;4787051;29;20180;-87
2022/10/26 08:34:14;;;;;;;11.77;3.38;;;10.20;99.90;;;;;;4786744;29;20590;-87
2022/10/26 08:36:40;;;;;;;5.65;3.67;;;10.40;99.90;;;;;;4786345;29;20303;-86
2022/10/26 08:39:07;;;;;;;13.48;3.63;;;10.70;99.90;;;;;;4787063;30;20199;-87
2022/10/26 08:41:37;;;;;;;15.20;4.35;;;10.80;99.90;;;;;;4788051;29;20180;-88
2022/10/26 08:44:23;;;;;;;8.07;4.30;;;10.90;99.90;;;;;;4787970;29;20167;-88
2022/10/26 08:46:57;;;;;;;6.88;3.13;;;11.00;99.90;;;;;;4794535;29;20273;-88
2022/10/26 08:49:29;;;;;;;7.75;3.03;;;11.10;99.90;;;;;;4804514;29;20256;-88
2022/10/26 08:52:00;;;;;;;4.28;2.70;;;11.30;99.90;;;;;;4804627;29;20179;-87
2022/10/26 08:54:39;;;;;;;6.45;2.97;;;11.50;99.90;;;;;;4804662;29;20297;-88
2022/10/26 08:57:24;;;;;;;5.07;2.90;;;11.60;99.90;;;;;;4804457;29;20202;-87
2022/10/26 09:00:00;;;;;;;6.43;3.00;;;11.70;99.90;;;;;;4804392;29;20842;-88
2022/10/26 09:02:26;;;;;;;4.88;2.72;;;11.90;99.90;;;;;;4804297;29;20183;-88
2022/10/26 09:04:53;;;;;;;4.38;2.80;;;11.90;99.90;;;;;;4803853;29;20183;-88
2022/10/26 09:07:37;;;;;;;7.63;2.80;;;12.00;99.90;;;;;;4803946;29;20203;-88
2022/10/26 09:10:15;;;;;;;3.88;2.63;;;12.10;99.90;;;;;;4804010;29;20570;-88
2022/10/26 09:12:52;;;;;;;6.93;2.97;;;12.20;99.90;;;;;;4804620;29;20272;-88
2022/10/26 09:15:47;;;;;;;4.97;2.40;;;12.30;99.90;;;;;;4804007;29;20202;-88
2022/10/26 09:18:34;;;;;;;7.38;2.53;;;12.40;99.90;;;;;;4801951;29;20706;-88
2022/10/26 09:21:35;;;;;;;6.80;2.60;;;12.50;99.90;;;;;;4788998;29;20187;-88
2022/10/26 09:24:32;;;;;;;6.60;2.60;;;12.50;99.90;;;;;;4779463;29;20195;-87
2022/10/26 09:27:15;;;;;;;7.75;2.35;;;12.60;99.90;;;;;;4790336;29;20225;-88
2022/10/26 09:29:42;;;;;;;5.20;2.53;;;12.70;99.90;;;;;;4822980;29;20212;-87
2022/10/26 09:32:19;;;;;;;5.57;2.67;;;12.80;99.90;;;;;;4807612;29;20186;-88
2022/10/26 09:34:59;;;;;;;6.05;2.20;;;12.90;99.90;;;;;;4794955;29;20210;-88
2022/10/26 09:37:32;;;;;;;4.55;2.22;;;13.00;99.90;;;;;;4789567;29;20225;-88
2022/10/26 09:40:04;;;;;;;7.80;2.63;;;13.10;99.90;;;;;;4789942;29;20197;-88
2022/10/26 09:42:57;;;;;;;4.10;1.95;;;13.20;99.90;;;;;;4796080;29;20190;-88
2022/10/26 09:45:37;;;;;;;9.93;2.50;;;13.30;99.90;;;;;;4803571;29;20234;-88
2022/10/26 09:48:41;;;;;;;9.30;2.13;;;13.50;99.90;;;;;;4803337;29;20210;-87
2022/10/26 09:51:08;;;;;;;5.75;1.90;;;13.50;99.90;;;;;;4771285;30;20193;-88
2022/10/26 09:53:34;;;;;;;3.95;1.80;;;13.60;99.90;;;;;;4786813;30;20305;-89
2022/10/26 09:56:04;;;;;;;5.82;2.22;;;13.70;99.90;;;;;;4787195;30;20314;-88
2022/10/26 09:59:00;;;;;;;12.52;2.05;;;13.70;99.90;;;;;;4770962;30;20186;-88
2022/10/26 10:01:28;;;;;;;5.78;1.80;;;13.80;99.90;;;;;;4779615;30;20196;-88
2022/10/26 10:04:24;;;;;;;6.50;1.90;;;13.90;99.90;;;;;;4771096;30;20592;-88
2022/10/26 10:07:17;;;;;;;6.60;2.10;;;13.90;99.90;;;;;;4760474;29;20222;-88
2022/10/26 10:09:42;;;;;;;5.32;1.60;;;14.00;99.90;;;;;;4767341;30;20207;-89
2022/10/26 10:12:19;;;;;;;3.45;1.90;;;14.00;99.90;;;;;;4770524;30;20179;-89
2022/10/26 10:14:57;;;;;;;3.17;1.80;;;14.00;99.90;;;;;;4784633;29;20205;-89
2022/10/26 10:17:24;;;;;;;9.05;2.22;;;14.00;99.90;;;;;;4788248;29;20252;-89
2022/10/26 10:19:50;;;;;;;5.72;2.00;;;14.10;99.90;;;;;;4787449;29;20194;-89
2022/10/26 10:22:22;;;;;;;6.65;1.63;;;14.20;99.90;;;;;;4787874;29;20175;-88
2022/10/26 10:24:59;;;;;;;5.30;1.50;;;14.30;99.90;;;;;;4788511;29;20198;-89
2022/10/26 10:27:27;;;;;;;8.18;1.38;;;14.40;99.90;;;;;;4787943;29;20206;-88
2022/10/26 10:29:55;;;;;;;3.97;1.30;;;14.50;99.90;;;;;;4780811;30;20584;-88
2022/10/26 10:32:23;;;;;;;4.15;1.35;;;14.50;99.90;;;;;;4781448;29;20194;-89
2022/10/26 10:34:51;;;;;;;3.90;1.45;;;14.50;99.90;;;;;;4788727;29;20255;-89
2022/10/26 10:37:40;;;;;;;9.27;1.38;;;14.50;99.90;;;;;;4792955;29;20202;-88
2022/10/26 10:40:12;;;;;;;4.55;1.30;;;14.60;99.90;;;;;;4803650;29;20186;-89
2022/10/26 10:42:41;;;;;;;6.82;1.58;;;14.60;99.90;;;;;;4787380;29;20209;-89
2022/10/26 10:45:17;;;;;;;2.35;1.20;;;14.60;99.90;;;;;;4782731;30;20238;-88
2022/10/26 10:48:02;;;;;;;2.13;1.17;;;14.60;99.90;;;;;;4785331;30;20291;-88
2022/10/26 10:50:29;;;;;;;2.00;1.00;;;14.60;99.90;;;;;;4785612;30;20283;-88
2022/10/26 10:53:18;;;;;;;2.78;1.13;;;14.60;99.90;;;;;;4785649;30;20187;-89
2022/10/26 10:56:12;;;;;;;10.35;1.30;;;14.60;99.90;;;;;;4786317;30;20203;-89
2022/10/26 10:58:52;;;;;;;3.38;1.33;;;14.70;99.90;;;;;;4785528;29;20180;-89
2022/10/26 11:01:21;;;;;;;7.50;1.45;;;14.70;99.90;;;;;;4788964;30;20191;-89
2022/10/26 11:04:02;;;;;;;5.18;1.70;;;14.80;99.90;;;;;;4788896;30;20179;-91
2022/10/26 11:06:30;;;;;;;4.47;1.80;;;14.80;99.90;;;;;;4789874;29;20199;-89
2022/10/26 11:09:02;;;;;;;8.60;1.50;;;14.90;99.90;;;;;;4789536;30;20195;-89
2022/10/26 11:11:37;;;;;;;6.07;1.30;;;14.90;99.90;;;;;;4788952;30;20283;-87
2022/10/26 11:14:11;;;;;;;9.20;1.70;;;14.90;99.90;;;;;;4789861;29;20167;-89
2022/10/26 11:16:46;;;;;;;5.88;1.48;;;15.00;99.90;;;;;;4788562;30;20215;-89
2022/10/26 11:19:59;;;;;;;5.90;1.40;;;15.20;99.90;;;;;;4789257;30;20674;-88
2022/10/26 11:22:40;;;;;;;2.75;1.48;;;15.50;99.90;;;;;;4764190;30;20335;-88
2022/10/26 11:25:14;;;;;;;6.63;1.80;;;15.60;99.90;;;;;;4788355;30;20191;-89
2022/10/26 11:27:49;;;;;;;2.78;1.60;;;15.70;99.90;;;;;;4788158;30;20352;-89
2022/10/26 11:30:20;;;;;;;2.92;1.38;;;15.80;99.90;;;;;;4788522;30;20191;-89
2022/10/26 11:32:59;;;;;;;4.88;1.60;;;15.80;99.90;;;;;;4788451;30;20667;-89
2022/10/26 11:35:30;;;;;;;3.45;1.17;;;15.90;99.90;;;;;;4788157;30;20230;-89
2022/10/26 11:38:16;;;;;;;7.78;1.33;;;16.00;99.90;;;;;;4789478;29;20273;-88
2022/10/26 11:40:57;;;;;;;3.03;1.30;;;16.10;99.90;;;;;;4788007;30;20259;-89
2022/10/26 11:43:47;;;;;;;4.03;1.20;;;16.10;99.90;;;;;;4788649;30;20184;-88
2022/10/26 11:46:36;;;;;;;4.30;1.50;;;16.20;99.90;;;;;;4787874;29;20235;-89
2022/10/26 11:49:16;;;;;;;4.50;1.25;;;16.10;99.90;;;;;;4788438;30;20182;-90
2022/10/26 11:52:20;;;;;;;3.67;1.35;;;16.10;99.90;;;;;;4788634;30;20176;-89
2022/10/26 11:55:01;;;;;;;4.68;1.40;;;16.20;99.90;;;;;;4788294;30;20222;-89
2022/10/26 11:57:28;;;;;;;2.92;1.48;;;16.20;99.90;;;;;;4788803;29;20202;-89
2022/10/26 12:00:16;;;;;;;5.68;1.55;;;16.20;99.90;;;;;;4771749;30;20261;-90
2022/10/26 12:02:46;;;;;;;3.67;1.30;;;16.30;99.90;;;;;;4771290;30;20192;-89
2022/10/26 12:05:14;;;;;;;2.25;1.33;;;16.30;99.90;;;;;;4770266;30;20187;-89
2022/10/26 12:07:46;;;;;;;4.22;1.15;;;16.40;99.90;;;;;;4770420;30;20212;-90
2022/10/26 12:10:50;;;;;;;7.43;1.40;;;16.40;99.90;;;;;;4770044;30;20188;-90
2022/10/26 12:13:21;;;;;;;3.67;1.35;;;16.40;99.90;;;;;;4736544;30;20195;-91
2022/10/26 12:16:09;;;;;;;2.25;1.00;;;16.40;99.90;;;;;;4767635;30;20302;-92
2022/10/26 12:19:11;;;;;;;3.92;1.20;;;16.50;99.90;;;;;;4788415;30;20175;-90
2022/10/26 12:21:37;;;;;;;5.30;1.45;;;16.50;99.90;;;;;;4779253;30;20578;-91
2022/10/26 12:24:21;;;;;;;5.90;1.30;;;16.60;99.90;;;;;;4788148;30;20259;-90
2022/10/26 12:27:04;;;;;;;4.55;1.42;;;16.60;99.90;;;;;;4787745;30;20204;-90
2022/10/26 12:29:35;;;;;;;3.28;1.42;;;16.70;99.90;;;;;;4788201;30;20274;-90
2022/10/26 12:32:03;;;;;;;3.38;1.33;;;16.70;99.90;;;;;;4788232;30;20172;-91
2022/10/26 12:34:28;;;;;;;1.55;1.10;;;16.70;99.90;;;;;;4788456;30;20195;-90
2022/10/26 12:36:54;;;;;;;3.85;1.33;;;16.80;99.90;;;;;;4788128;30;20644;-89
2022/10/26 12:39:33;;;;;;;2.78;1.05;;;16.90;99.90;;;;;;4788338;30;20588;-91
2022/10/26 12:42:05;;;;;;;7.00;1.35;;;17.00;99.90;;;;;;4788152;30;20175;-91
2022/10/26 12:44:44;;;;;;;3.28;1.30;;;17.10;99.90;;;;;;4786719;29;20238;-90
2022/10/26 12:47:30;;;;;;;5.20;1.35;;;17.20;99.90;;;;;;4787177;29;20238;-91
2022/10/26 12:50:10;;;;;;;4.72;1.02;;;17.30;99.90;;;;;;4784734;30;20198;-90
2022/10/26 12:52:58;;;;;;;3.53;1.30;;;17.40;99.90;;;;;;4787081;29;20175;-90
2022/10/26 12:55:48;;;;;;;3.30;1.25;;;17.70;99.90;;;;;;4784105;30;20289;-89
2022/10/26 12:58:26;;;;;;;4.95;1.17;;;18.00;99.90;;;;;;4787877;30;20208;-90
2022/10/26 13:00:57;;;;;;;4.32;1.20;;;18.20;99.90;;;;;;4788371;30;20171;-90
2022/10/26 13:03:38;;;;;;;4.47;1.20;;;18.30;99.90;;;;;;4789262;30;20172;-90
2022/10/26 13:06:27;;;;;;;6.65;1.52;;;18.50;99.90;;;;;;4787453;30;20199;-89
2022/10/26 13:08:55;;;;;;;6.20;1.35;;;18.50;99.90;;;;;;4787682;30;20174;-90
2022/10/26 13:11:34;;;;;;;5.95;1.70;;;18.40;99.90;;;;;;4787707;30;20282;-90
2022/10/26 13:14:04;;;;;;;3.13;1.30;;;18.30;99.90;;;;;;4787934;29;20179;-90
2022/10/26 13:16:30;;;;;;;5.47;1.33;;;18.30;99.90;;;;;;4787598;29;20589;-90
2022/10/26 13:18:56;;;;;;;2.80;1.30;;;18.20;99.90;;;;;;4787997;30;20187;-91
2022/10/26 13:21:25;;;;;;;5.38;1.45;;;18.00;99.90;;;;;;4787437;30;20194;-91
2022/10/26 13:23:56;;;;;;;6.70;1.60;;;17.90;99.90;;;;;;4787567;29;20756;-92